Time;durP1;ratioP1;P1;durP2;ratioP2;P2;SDS_P1;SDS_P2;PMS_P1;PMS_P2;Temp;Humidity;BMP_temperature;BMP_pressure;BME280_temperature;BME280_humidity;BME280_pressure;Samples;Min_cycle;Max_cycle;Signal;HPM_P1;HPM_P2
2021/09/05 00:00:24;;;;;;;17.42;10.18;;;;;;;;;;5051277;28;20055;-62
2021/09/05 00:02:50;;;;;;;19.70;10.45;;;;;;;;;;5052733;28;20039;-61
2021/09/05 00:05:15;;;;;;;19.58;10.23;;;;;;;;;;5054707;28;20028;-61
2021/09/05 00:07:41;;;;;;;24.17;11.90;;;;;;;;;;5049663;28;20399;-60
2021/09/05 00:10:07;;;;;;;19.42;11.10;;;;;;;;;;5051739;28;20029;-62
2021/09/05 00:12:32;;;;;;;21.70;11.27;;;;;;;;;;5048916;28;20076;-61
2021/09/05 00:14:58;;;;;;;19.88;11.98;;;;;;;;;;5052830;28;20052;-61
2021/09/05 00:17:23;;;;;;;21.20;11.05;;;;;;;;;;5051431;28;20032;-61
2021/09/05 00:19:49;;;;;;;20.17;10.95;;;;;;;;;;5050118;28;20075;-61
2021/09/05 00:22:14;;;;;;;20.35;11.30;;;;;;;;;;5054832;28;20027;-61
2021/09/05 00:24:40;;;;;;;21.02;10.90;;;;;;;;;;5050172;28;20082;-61
2021/09/05 00:27:05;;;;;;;19.00;10.60;;;;;;;;;;5048148;28;20029;-61
2021/09/05 00:29:30;;;;;;;18.77;11.15;;;;;;;;;;5051487;28;20025;-61
2021/09/05 00:31:56;;;;;;;20.35;10.60;;;;;;;;;;5065579;28;20029;-60
2021/09/05 00:34:22;;;;;;;19.05;10.43;;;;;;;;;;5051269;28;20017;-60
2021/09/05 00:36:47;;;;;;;16.73;10.70;;;;;;;;;;5055054;28;20166;-59
2021/09/05 00:39:13;;;;;;;17.63;10.00;;;;;;;;;;5052518;28;20040;-60
2021/09/05 00:41:38;;;;;;;18.45;10.50;;;;;;;;;;5051971;28;20025;-60
2021/09/05 00:44:08;;;;;;;19.45;10.63;;;;;;;;;;5050008;28;20556;-59
2021/09/05 00:46:36;;;;;;;20.15;10.25;;;;;;;;;;5050005;28;20167;-60
2021/09/05 00:49:02;;;;;;;19.02;10.82;;;;;;;;;;5050719;28;20028;-60
2021/09/05 00:51:33;;;;;;;20.95;10.57;;;;;;;;;;5066605;28;20454;-60
2021/09/05 00:54:00;;;;;;;16.83;9.63;;;;;;;;;;5050867;28;20025;-60
2021/09/05 00:56:28;;;;;;;18.80;9.75;;;;;;;;;;5050849;28;20025;-60
2021/09/05 00:58:55;;;;;;;16.30;10.18;;;;;;;;;;5048812;28;20476;-60
2021/09/05 01:01:22;;;;;;;18.58;9.98;;;;;;;;;;5047086;28;20040;-60
2021/09/05 01:03:48;;;;;;;17.65;9.73;;;;;;;;;;5050625;28;20032;-60
2021/09/05 01:06:13;;;;;;;18.13;10.57;;;;;;;;;;5056027;28;20029;-61
2021/09/05 01:08:39;;;;;;;17.90;9.88;;;;;;;;;;5054355;28;20028;-61
2021/09/05 01:11:04;;;;;;;17.92;9.65;;;;;;;;;;5053378;28;20497;-60
2021/09/05 01:13:31;;;;;;;19.00;9.88;;;;;;;;;;5051150;28;20059;-60
2021/09/05 01:15:56;;;;;;;17.13;9.93;;;;;;;;;;5055031;28;20688;-61
2021/09/05 01:18:22;;;;;;;16.52;9.82;;;;;;;;;;5050188;28;20124;-60
2021/09/05 01:20:47;;;;;;;16.95;9.68;;;;;;;;;;5050430;28;20024;-60
2021/09/05 01:23:13;;;;;;;16.95;10.00;;;;;;;;;;5065479;28;20115;-60
2021/09/05 01:25:40;;;;;;;17.95;10.13;;;;;;;;;;5052283;28;20040;-60
2021/09/05 01:28:08;;;;;;;18.30;10.77;;;;;;;;;;5047698;28;20097;-61
2021/09/05 01:30:34;;;;;;;19.75;10.25;;;;;;;;;;5050620;28;20025;-60
2021/09/05 01:33:00;;;;;;;16.40;9.88;;;;;;;;;;5048938;28;20104;-60
2021/09/05 01:35:26;;;;;;;17.80;9.55;;;;;;;;;;5052741;28;20498;-60
2021/09/05 01:37:51;;;;;;;16.65;10.10;;;;;;;;;;5064337;28;20036;-60
2021/09/05 01:40:17;;;;;;;16.40;9.27;;;;;;;;;;5051160;28;20526;-60
2021/09/05 01:42:42;;;;;;;17.25;9.90;;;;;;;;;;5049628;28;20020;-60
2021/09/05 01:45:08;;;;;;;22.77;10.70;;;;;;;;;;5049053;28;20495;-60
2021/09/05 01:47:33;;;;;;;18.48;10.13;;;;;;;;;;5055457;28;20589;-60
2021/09/05 01:49:59;;;;;;;17.20;10.00;;;;;;;;;;5048939;28;20029;-60
2021/09/05 01:52:24;;;;;;;17.67;10.00;;;;;;;;;;5046386;28;20039;-60
2021/09/05 01:54:50;;;;;;;20.25;10.20;;;;;;;;;;5049396;28;20460;-61
2021/09/05 01:57:15;;;;;;;16.50;9.80;;;;;;;;;;5050630;28;20044;-60
2021/09/05 01:59:40;;;;;;;16.48;10.05;;;;;;;;;;5047902;28;20036;-60
2021/09/05 02:02:06;;;;;;;16.17;9.00;;;;;;;;;;5054115;28;20056;-60
2021/09/05 02:04:31;;;;;;;18.05;10.10;;;;;;;;;;5050782;28;20036;-61
2021/09/05 02:06:57;;;;;;;18.02;9.60;;;;;;;;;;5048623;28;20036;-60
2021/09/05 02:09:22;;;;;;;16.75;9.90;;;;;;;;;;5051748;28;20396;-60
2021/09/05 02:11:47;;;;;;;17.48;9.60;;;;;;;;;;5054926;28;20596;-60
2021/09/05 02:14:13;;;;;;;16.25;9.75;;;;;;;;;;5052390;28;20032;-60
2021/09/05 02:16:38;;;;;;;16.38;10.25;;;;;;;;;;5051038;28;20131;-61
2021/09/05 02:19:04;;;;;;;17.08;10.23;;;;;;;;;;5049272;28;20115;-60
2021/09/05 02:21:30;;;;;;;18.05;9.57;;;;;;;;;;5054560;28;20466;-59
2021/09/05 02:23:55;;;;;;;18.05;9.70;;;;;;;;;;5051833;28;20135;-59
2021/09/05 02:26:21;;;;;;;18.67;10.13;;;;;;;;;;5049247;28;20024;-59
2021/09/05 02:28:46;;;;;;;18.75;10.32;;;;;;;;;;5049370;28;20032;-60
2021/09/05 02:31:12;;;;;;;21.08;10.55;;;;;;;;;;5049242;28;20024;-60
2021/09/05 02:33:37;;;;;;;17.80;10.07;;;;;;;;;;5050345;28;20153;-60
2021/09/05 02:36:03;;;;;;;21.60;11.15;;;;;;;;;;5049653;28;20035;-60
2021/09/05 02:38:28;;;;;;;17.75;10.25;;;;;;;;;;5042473;28;20029;-59
2021/09/05 02:40:55;;;;;;;16.58;10.18;;;;;;;;;;5049978;28;20032;-61
2021/09/05 02:43:20;;;;;;;19.50;10.32;;;;;;;;;;5051101;28;20086;-60
2021/09/05 02:45:46;;;;;;;22.40;9.75;;;;;;;;;;5050400;28;20029;-60
2021/09/05 02:48:11;;;;;;;18.75;10.48;;;;;;;;;;5047604;28;20099;-60
2021/09/05 02:50:37;;;;;;;18.08;9.82;;;;;;;;;;5048455;28;20032;-60
2021/09/05 02:53:02;;;;;;;18.25;10.07;;;;;;;;;;5030553;28;20025;-60
2021/09/05 02:55:28;;;;;;;15.77;9.85;;;;;;;;;;5052618;28;20031;-60
2021/09/05 02:57:53;;;;;;;18.27;10.57;;;;;;;;;;5052920;28;20119;-60
2021/09/05 03:00:19;;;;;;;22.13;11.00;;;;;;;;;;5052358;28;20032;-60
2021/09/05 03:02:44;;;;;;;18.10;9.38;;;;;;;;;;5047827;28;20025;-61
2021/09/05 03:05:10;;;;;;;19.25;10.80;;;;;;;;;;5046913;28;20044;-60
2021/09/05 03:07:35;;;;;;;17.48;9.70;;;;;;;;;;5064807;28;20043;-60
2021/09/05 03:10:01;;;;;;;18.50;10.50;;;;;;;;;;5048905;28;20393;-61
2021/09/05 03:12:27;;;;;;;18.70;9.93;;;;;;;;;;5050885;28;20017;-60
2021/09/05 03:14:52;;;;;;;19.80;10.85;;;;;;;;;;5051701;28;20057;-61
2021/09/05 03:17:18;;;;;;;21.33;9.95;;;;;;;;;;5049218;28;20062;-60
2021/09/05 03:19:43;;;;;;;18.20;10.20;;;;;;;;;;5046964;28;20104;-60
2021/09/05 03:22:09;;;;;;;18.70;10.45;;;;;;;;;;5053731;28;20103;-60
2021/09/05 03:24:35;;;;;;;19.33;10.90;;;;;;;;;;5050140;28;20029;-60
2021/09/05 03:27:00;;;;;;;18.70;10.00;;;;;;;;;;5047799;28;20514;-61
2021/09/05 03:29:26;;;;;;;20.02;10.40;;;;;;;;;;5049696;28;20029;-60
2021/09/05 03:31:51;;;;;;;17.63;9.98;;;;;;;;;;5050213;28;20068;-60
2021/09/05 03:34:17;;;;;;;17.23;9.75;;;;;;;;;;5048061;28;20385;-60
2021/09/05 03:36:42;;;;;;;20.35;10.73;;;;;;;;;;5048591;28;20021;-60
2021/09/05 03:39:08;;;;;;;20.70;10.57;;;;;;;;;;5047451;28;20040;-60
2021/09/05 03:41:33;;;;;;;20.77;10.68;;;;;;;;;;5048246;28;20029;-60
2021/09/05 03:43:59;;;;;;;18.90;10.32;;;;;;;;;;5053106;28;20179;-60
2021/09/05 03:46:24;;;;;;;20.17;10.73;;;;;;;;;;5049472;28;20121;-59
2021/09/05 03:48:50;;;;;;;19.63;10.43;;;;;;;;;;5045116;28;20399;-60
2021/09/05 03:51:15;;;;;;;18.10;10.38;;;;;;;;;;5052218;28;20089;-60
2021/09/05 03:53:40;;;;;;;20.92;10.38;;;;;;;;;;5064961;28;20132;-60
2021/09/05 03:56:06;;;;;;;17.92;10.00;;;;;;;;;;5069292;28;20037;-60
2021/09/05 03:58:32;;;;;;;17.45;10.10;;;;;;;;;;5047371;28;20517;-60
2021/09/05 04:00:57;;;;;;;16.92;9.88;;;;;;;;;;5047509;28;20531;-59
2021/09/05 04:03:24;;;;;;;17.80;10.38;;;;;;;;;;5048466;28;20024;-60
2021/09/05 04:05:49;;;;;;;17.88;10.40;;;;;;;;;;5050410;28;20032;-60
2021/09/05 04:08:15;;;;;;;19.35;10.25;;;;;;;;;;5048869;28;20478;-60
2021/09/05 04:10:42;;;;;;;24.30;10.27;;;;;;;;;;5048492;28;20017;-60
2021/09/05 04:13:09;;;;;;;19.85;10.45;;;;;;;;;;5056935;28;20037;-60
2021/09/05 04:15:34;;;;;;;20.30;10.00;;;;;;;;;;5049695;28;20044;-61
2021/09/05 04:17:59;;;;;;;18.67;10.30;;;;;;;;;;5043753;28;20024;-60
2021/09/05 04:20:25;;;;;;;21.45;10.75;;;;;;;;;;5046452;28;20108;-60
2021/09/05 04:22:51;;;;;;;18.92;9.98;;;;;;;;;;5048335;28;20053;-60
2021/09/05 04:25:17;;;;;;;17.70;9.88;;;;;;;;;;5048955;28;20045;-61
2021/09/05 04:27:42;;;;;;;16.05;8.68;;;;;;;;;;5047293;28;20376;-60
2021/09/05 04:30:10;;;;;;;15.80;9.20;;;;;;;;;;5047056;28;20071;-61
2021/09/05 04:32:37;;;;;;;17.27;8.73;;;;;;;;;;5047972;28;20060;-60
2021/09/05 04:35:03;;;;;;;17.40;9.00;;;;;;;;;;5051858;28;20491;-60
2021/09/05 04:37:29;;;;;;;15.55;9.02;;;;;;;;;;5051655;28;20032;-62
2021/09/05 04:39:54;;;;;;;16.65;8.80;;;;;;;;;;5050648;28;20036;-60
2021/09/05 04:42:20;;;;;;;18.08;8.35;;;;;;;;;;5068068;28;20033;-60
2021/09/05 04:44:46;;;;;;;16.95;8.82;;;;;;;;;;5050705;28;20110;-60
2021/09/05 04:47:13;;;;;;;14.90;8.55;;;;;;;;;;5066258;28;20479;-61
2021/09/05 04:49:38;;;;;;;17.60;8.65;;;;;;;;;;5050841;28;20105;-61
2021/09/05 04:52:06;;;;;;;14.50;8.48;;;;;;;;;;5049986;28;20036;-60
2021/09/05 04:54:34;;;;;;;17.20;10.10;;;;;;;;;;5052903;28;20201;-60
2021/09/05 04:57:00;;;;;;;17.85;9.02;;;;;;;;;;5045343;28;20491;-60
2021/09/05 04:59:25;;;;;;;15.18;8.77;;;;;;;;;;5056332;28;20047;-59
2021/09/05 05:01:51;;;;;;;16.10;9.60;;;;;;;;;;5049825;28;20369;-59
2021/09/05 05:04:16;;;;;;;19.52;9.60;;;;;;;;;;5051567;28;20052;-59
2021/09/05 05:06:42;;;;;;;20.80;9.10;;;;;;;;;;5049783;28;20395;-60
2021/09/05 05:09:14;;;;;;;20.17;10.10;;;;;;;;;;5047489;28;20391;-61
2021/09/05 05:11:40;;;;;;;17.55;9.00;;;;;;;;;;5049487;28;20517;-61
2021/09/05 05:14:05;;;;;;;17.02;9.25;;;;;;;;;;5054575;28;20028;-61
2021/09/05 05:16:31;;;;;;;23.80;9.52;;;;;;;;;;5050519;28;20035;-61
2021/09/05 05:18:57;;;;;;;18.73;9.65;;;;;;;;;;5050874;28;20039;-60
2021/09/05 05:21:26;;;;;;;22.20;10.02;;;;;;;;;;5049110;28;20029;-61
2021/09/05 05:23:52;;;;;;;18.23;9.68;;;;;;;;;;5050082;28;20032;-61
2021/09/05 05:26:17;;;;;;;19.40;10.60;;;;;;;;;;5051201;28;20033;-60
2021/09/05 05:28:43;;;;;;;19.38;9.80;;;;;;;;;;5069291;28;20573;-61
2021/09/05 05:31:08;;;;;;;18.30;9.57;;;;;;;;;;5054461;28;20024;-61
2021/09/05 05:33:34;;;;;;;17.75;9.32;;;;;;;;;;5050682;28;20064;-61
2021/09/05 05:35:59;;;;;;;20.48;10.30;;;;;;;;;;5052166;28;20106;-61
2021/09/05 05:38:24;;;;;;;18.55;10.75;;;;;;;;;;5048137;28;20035;-61
2021/09/05 05:40:50;;;;;;;18.85;9.88;;;;;;;;;;5053284;28;20021;-61
2021/09/05 05:43:15;;;;;;;17.42;9.40;;;;;;;;;;5051340;28;20054;-62
2021/09/05 05:45:41;;;;;;;16.00;8.85;;;;;;;;;;5050262;28;20099;-62
2021/09/05 05:48:07;;;;;;;17.95;8.75;;;;;;;;;;5048636;28;20028;-63
2021/09/05 05:50:32;;;;;;;20.38;9.48;;;;;;;;;;5050407;28;20028;-62
2021/09/05 05:52:58;;;;;;;15.30;8.60;;;;;;;;;;5049903;28;20029;-62
2021/09/05 05:55:23;;;;;;;17.95;9.43;;;;;;;;;;5050848;28;20060;-60
2021/09/05 05:57:49;;;;;;;21.00;11.25;;;;;;;;;;5050577;28;20100;-62
2021/09/05 06:00:15;;;;;;;19.25;9.98;;;;;;;;;;5053664;28;20037;-62
2021/09/05 06:02:40;;;;;;;18.30;10.25;;;;;;;;;;5051159;28;20041;-61
2021/09/05 06:05:06;;;;;;;18.60;10.50;;;;;;;;;;5052966;28;20017;-61
2021/09/05 06:07:32;;;;;;;25.08;10.45;;;;;;;;;;5052125;28;20040;-61
2021/09/05 06:09:57;;;;;;;19.58;10.68;;;;;;;;;;5044983;28;20055;-61
2021/09/05 06:12:22;;;;;;;22.58;11.00;;;;;;;;;;5046031;28;20747;-61
2021/09/05 06:14:48;;;;;;;20.90;10.65;;;;;;;;;;5049210;28;20083;-61
2021/09/05 06:17:14;;;;;;;17.23;10.07;;;;;;;;;;5049571;28;20111;-62
2021/09/05 06:19:39;;;;;;;21.80;10.93;;;;;;;;;;5048973;28;20032;-62
2021/09/05 06:22:05;;;;;;;25.70;12.07;;;;;;;;;;5055918;28;20040;-62
2021/09/05 06:24:31;;;;;;;25.85;12.13;;;;;;;;;;5049976;28;20029;-62
2021/09/05 06:26:56;;;;;;;31.33;14.75;;;;;;;;;;5048558;28;20029;-62
2021/09/05 06:29:22;;;;;;;35.78;16.55;;;;;;;;;;5047897;28;20442;-62
2021/09/05 06:31:48;;;;;;;39.55;17.58;;;;;;;;;;5049131;28;20027;-61
2021/09/05 06:34:13;;;;;;;35.50;17.83;;;;;;;;;;5048682;28;20052;-61
2021/09/05 06:36:39;;;;;;;27.80;13.80;;;;;;;;;;5044949;28;20029;-61
2021/09/05 06:39:04;;;;;;;21.95;12.63;;;;;;;;;;5046759;28;20107;-61
2021/09/05 06:41:30;;;;;;;22.38;12.98;;;;;;;;;;5049104;28;20025;-61
2021/09/05 06:43:56;;;;;;;20.52;11.95;;;;;;;;;;5050424;28;20032;-62
2021/09/05 06:46:22;;;;;;;26.92;13.60;;;;;;;;;;5050688;28;20040;-61
2021/09/05 06:48:48;;;;;;;35.58;18.85;;;;;;;;;;5049262;28;20488;-61
2021/09/05 06:51:13;;;;;;;33.20;16.70;;;;;;;;;;5047945;28;20112;-61
2021/09/05 06:53:40;;;;;;;25.40;13.60;;;;;;;;;;5050342;28;20463;-61
2021/09/05 06:56:05;;;;;;;21.15;12.15;;;;;;;;;;5047430;28;20399;-61
2021/09/05 06:58:30;;;;;;;21.85;13.00;;;;;;;;;;5047794;28;20025;-61
2021/09/05 07:00:56;;;;;;;25.30;13.18;;;;;;;;;;5052397;28;20033;-61
2021/09/05 07:03:21;;;;;;;26.63;13.13;;;;;;;;;;5049589;28;20017;-61
2021/09/05 07:05:47;;;;;;;20.27;11.88;;;;;;;;;;5047789;28;20060;-61
2021/09/05 07:08:12;;;;;;;23.95;12.57;;;;;;;;;;5046682;28;20098;-61
2021/09/05 07:10:38;;;;;;;22.92;12.23;;;;;;;;;;5049327;28;20024;-62
2021/09/05 07:13:04;;;;;;;23.55;12.80;;;;;;;;;;5048756;28;20020;-61
2021/09/05 07:15:29;;;;;;;22.85;12.15;;;;;;;;;;5046895;28;20078;-61
2021/09/05 07:17:55;;;;;;;22.95;12.68;;;;;;;;;;5066703;28;20028;-61
2021/09/05 07:20:20;;;;;;;20.95;12.30;;;;;;;;;;5048803;28;20032;-60
2021/09/05 07:22:46;;;;;;;22.30;12.55;;;;;;;;;;5052599;28;20411;-61
2021/09/05 07:25:12;;;;;;;23.48;12.25;;;;;;;;;;5049639;28;20024;-61
2021/09/05 07:27:37;;;;;;;20.77;11.80;;;;;;;;;;5048540;28;20033;-61
2021/09/05 07:30:06;;;;;;;21.20;11.45;;;;;;;;;;5047277;28;20090;-61
2021/09/05 07:32:32;;;;;;;20.02;11.98;;;;;;;;;;5063261;28;20445;-63
2021/09/05 07:34:57;;;;;;;23.92;12.40;;;;;;;;;;5047633;28;20028;-61
2021/09/05 07:37:23;;;;;;;21.17;11.50;;;;;;;;;;5048799;28;20517;-61
2021/09/05 07:39:48;;;;;;;21.55;12.30;;;;;;;;;;5047089;28;20033;-61
2021/09/05 07:42:14;;;;;;;19.17;11.02;;;;;;;;;;5047031;28;20021;-61
2021/09/05 07:44:39;;;;;;;20.88;11.73;;;;;;;;;;5046339;28;20021;-61
2021/09/05 07:47:05;;;;;;;21.48;11.95;;;;;;;;;;5047799;28;20020;-61
2021/09/05 07:49:30;;;;;;;18.70;11.00;;;;;;;;;;5047437;28;20420;-61
2021/09/05 07:51:55;;;;;;;23.65;11.45;;;;;;;;;;5046768;28;20036;-61
2021/09/05 07:54:21;;;;;;;19.60;11.57;;;;;;;;;;5048053;28;20103;-62
2021/09/05 07:56:47;;;;;;;19.25;11.48;;;;;;;;;;5046819;28;20114;-63
2021/09/05 07:59:12;;;;;;;19.75;11.55;;;;;;;;;;5044245;28;20048;-61
2021/09/05 08:01:37;;;;;;;22.60;12.30;;;;;;;;;;5042798;28;20029;-61
2021/09/05 08:04:03;;;;;;;20.55;11.27;;;;;;;;;;5048734;28;20055;-61
2021/09/05 08:06:29;;;;;;;22.85;11.55;;;;;;;;;;5045283;28;20420;-61
2021/09/05 08:08:56;;;;;;;17.90;10.20;;;;;;;;;;5047630;28;20151;-61
2021/09/05 08:11:21;;;;;;;20.38;11.75;;;;;;;;;;5053285;28;20055;-61
2021/09/05 08:13:47;;;;;;;20.85;11.52;;;;;;;;;;5052528;28;20071;-62
2021/09/05 08:16:13;;;;;;;22.65;11.35;;;;;;;;;;5050520;28;20108;-64
2021/09/05 08:18:38;;;;;;;20.75;11.07;;;;;;;;;;5050805;28;20484;-62
2021/09/05 08:21:08;;;;;;;19.23;11.30;;;;;;;;;;5051665;28;20107;-61
2021/09/05 08:23:35;;;;;;;16.63;11.02;;;;;;;;;;5051924;28;20052;-63
2021/09/05 08:26:02;;;;;;;18.67;11.20;;;;;;;;;;5051322;28;20036;-62
2021/09/05 08:28:27;;;;;;;20.35;11.80;;;;;;;;;;5050330;28;20143;-62
2021/09/05 08:30:53;;;;;;;19.10;11.15;;;;;;;;;;5056260;28;20096;-62
2021/09/05 08:33:18;;;;;;;20.80;10.55;;;;;;;;;;5051769;28;20032;-62
2021/09/05 08:35:44;;;;;;;17.90;10.68;;;;;;;;;;5056826;28;20555;-62
2021/09/05 08:38:10;;;;;;;18.35;11.18;;;;;;;;;;5050665;28;20016;-62
2021/09/05 08:40:41;;;;;;;16.63;9.63;;;;;;;;;;5050943;28;20517;-59
2021/09/05 08:43:08;;;;;;;16.65;9.55;;;;;;;;;;5050038;28;20120;-59
2021/09/05 08:45:35;;;;;;;17.20;9.00;;;;;;;;;;5052610;28;20029;-59
2021/09/05 08:48:01;;;;;;;18.73;9.93;;;;;;;;;;5049618;28;20090;-59
2021/09/05 08:50:27;;;;;;;14.77;8.95;;;;;;;;;;5051016;28;20021;-59
2021/09/05 08:52:53;;;;;;;14.15;8.88;;;;;;;;;;5051706;28;20037;-59
2021/09/05 08:55:18;;;;;;;14.70;9.20;;;;;;;;;;5050552;28;20394;-60
2021/09/05 08:57:44;;;;;;;17.15;9.57;;;;;;;;;;5047308;28;20061;-59
2021/09/05 09:00:10;;;;;;;18.77;10.32;;;;;;;;;;5065966;28;20029;-59
2021/09/05 09:02:53;;;;;;;17.45;9.68;;;;;;;;;;5048328;28;20037;-59
2021/09/05 09:05:32;;;;;;;17.85;9.27;;;;;;;;;;5051240;28;20037;-59
2021/09/05 09:08:08;;;;;;;20.77;10.05;;;;;;;;;;5050193;28;20040;-59
2021/09/05 09:10:48;;;;;;;19.70;11.48;;;;;;;;;;5052751;28;20558;-60
2021/09/05 09:13:38;;;;;;;17.50;10.70;;;;;;;;;;5050065;28;20032;-59
2021/09/05 09:16:11;;;;;;;16.30;10.18;;;;;;;;;;5044448;28;20036;-59
2021/09/05 09:18:39;;;;;;;17.27;10.38;;;;;;;;;;5047392;28;20036;-59
2021/09/05 09:21:07;;;;;;;20.92;10.82;;;;;;;;;;5051711;28;20067;-59
2021/09/05 09:23:34;;;;;;;16.55;10.15;;;;;;;;;;5050001;28;20092;-59
2021/09/05 09:26:01;;;;;;;18.45;10.98;;;;;;;;;;5051161;28;20029;-59
2021/09/05 09:28:28;;;;;;;16.48;10.05;;;;;;;;;;5049646;28;20037;-59
2021/09/05 09:30:58;;;;;;;16.88;10.40;;;;;;;;;;5052083;28;20082;-61
2021/09/05 09:33:25;;;;;;;18.17;10.38;;;;;;;;;;5052075;28;20029;-59
2021/09/05 09:35:56;;;;;;;17.63;10.05;;;;;;;;;;5050145;28;20048;-59
2021/09/05 09:38:23;;;;;;;17.13;9.80;;;;;;;;;;5048910;28;20053;-59
2021/09/05 09:40:48;;;;;;;14.93;9.55;;;;;;;;;;5050030;28;20029;-59
2021/09/05 09:43:22;;;;;;;17.27;9.85;;;;;;;;;;5053855;28;20035;-59
2021/09/05 09:45:49;;;;;;;15.77;10.10;;;;;;;;;;5050605;28;20534;-59
2021/09/05 09:48:26;;;;;;;15.05;9.65;;;;;;;;;;5049333;28;20385;-59
2021/09/05 09:50:59;;;;;;;15.77;9.63;;;;;;;;;;5049776;28;20025;-58
2021/09/05 09:53:24;;;;;;;16.02;9.73;;;;;;;;;;5052133;28;20103;-59
2021/09/05 09:55:51;;;;;;;14.48;9.40;;;;;;;;;;5049741;28;20108;-59
2021/09/05 09:58:16;;;;;;;13.77;9.07;;;;;;;;;;5048765;28;20071;-59
2021/09/05 10:00:43;;;;;;;17.17;9.82;;;;;;;;;;5050115;28;20045;-58
2021/09/05 10:03:11;;;;;;;17.75;10.90;;;;;;;;;;5048616;28;20090;-59
2021/09/05 10:05:37;;;;;;;14.60;8.98;;;;;;;;;;5050737;28;20024;-59
2021/09/05 10:08:04;;;;;;;15.85;9.45;;;;;;;;;;5048651;28;20028;-59
2021/09/05 10:10:31;;;;;;;16.17;9.57;;;;;;;;;;5048597;28;20133;-59
2021/09/05 10:12:56;;;;;;;15.27;10.00;;;;;;;;;;5053616;28;20131;-60
2021/09/05 10:15:22;;;;;;;17.15;10.50;;;;;;;;;;5048591;28;20463;-59
2021/09/05 10:17:48;;;;;;;15.57;9.43;;;;;;;;;;5049459;28;20391;-59
2021/09/05 10:20:16;;;;;;;15.52;9.95;;;;;;;;;;5049641;28;20021;-59
2021/09/05 10:22:42;;;;;;;14.52;9.07;;;;;;;;;;5046872;28;20099;-59
2021/09/05 10:25:08;;;;;;;13.60;9.38;;;;;;;;;;5050881;28;20032;-59
2021/09/05 10:27:37;;;;;;;16.02;10.07;;;;;;;;;;5050435;28;20032;-59
2021/09/05 10:30:11;;;;;;;14.45;9.65;;;;;;;;;;5048540;28;20037;-59
2021/09/05 10:32:57;;;;;;;13.82;9.55;;;;;;;;;;5063656;28;20030;-59
2021/09/05 10:35:28;;;;;;;13.95;9.43;;;;;;;;;;5046368;28;20399;-59
2021/09/05 10:38:08;;;;;;;16.90;9.20;;;;;;;;;;5052095;28;20100;-60
2021/09/05 10:40:49;;;;;;;15.20;9.82;;;;;;;;;;5050065;28;20025;-59
2021/09/05 10:43:15;;;;;;;16.10;9.75;;;;;;;;;;5053270;28;20548;-59
2021/09/05 10:45:47;;;;;;;16.45;9.70;;;;;;;;;;5050295;28;20068;-59
2021/09/05 10:48:35;;;;;;;14.20;9.60;;;;;;;;;;5046863;28;20020;-60
2021/09/05 10:51:15;;;;;;;14.70;9.73;;;;;;;;;;5048499;28;20093;-59
2021/09/05 10:53:54;;;;;;;14.70;9.68;;;;;;;;;;5051732;28;20487;-60
2021/09/05 10:56:22;;;;;;;12.88;8.93;;;;;;;;;;5066721;28;20039;-59
2021/09/05 10:59:05;;;;;;;14.60;8.73;;;;;;;;;;5048870;28;20396;-59
2021/09/05 11:02:01;;;;;;;14.30;9.63;;;;;;;;;;5049071;28;20028;-59
2021/09/05 11:04:44;;;;;;;12.52;9.07;;;;;;;;;;5046802;28;20643;-58
2021/09/05 11:07:28;;;;;;;16.15;9.30;;;;;;;;;;5048938;28;20028;-58
2021/09/05 11:09:54;;;;;;;15.73;9.32;;;;;;;;;;5047980;28;20025;-60
2021/09/05 11:12:37;;;;;;;13.77;9.13;;;;;;;;;;5051228;28;20032;-59
2021/09/05 11:15:14;;;;;;;13.70;9.27;;;;;;;;;;5050115;28;20035;-60
2021/09/05 11:17:39;;;;;;;13.07;8.52;;;;;;;;;;5048384;28;20029;-61
2021/09/05 11:20:08;;;;;;;13.35;8.60;;;;;;;;;;5049893;28;20051;-59
2021/09/05 11:22:44;;;;;;;;;;;;;;;;;;5054260;28;20056;-61
2021/09/05 11:25:31;;;;;;;14.82;8.98;;;;;;;;;;5046884;28;19912;-62
2021/09/05 11:28:01;;;;;;;12.15;8.43;;;;;;;;;;5048881;28;20257;-60
2021/09/05 11:30:29;;;;;;;15.23;8.80;;;;;;;;;;5051531;28;20020;-60
2021/09/05 11:33:03;;;;;;;16.83;8.82;;;;;;;;;;5046865;28;20109;-61
2021/09/05 11:35:37;;;;;;;21.15;11.20;;;;;;;;;;5048203;28;20033;-60
2021/09/05 11:38:03;;;;;;;21.27;9.90;;;;;;;;;;5047822;28;20398;-60
2021/09/05 11:40:29;;;;;;;16.48;9.10;;;;;;;;;;5045213;28;20031;-59
2021/09/05 11:42:56;;;;;;;13.50;8.30;;;;;;;;;;5049515;28;20368;-60
2021/09/05 11:45:24;;;;;;;11.25;7.85;;;;;;;;;;5051570;28;20558;-60
2021/09/05 11:48:01;;;;;;;14.50;8.68;;;;;;;;;;5052068;28;20032;-60
2021/09/05 11:50:28;;;;;;;12.38;8.02;;;;;;;;;;5050666;28;20086;-61
2021/09/05 11:52:54;;;;;;;11.95;7.00;;;;;;;;;;5044399;28;20063;-60
2021/09/05 11:55:20;;;;;;;11.82;7.10;;;;;;;;;;5058049;28;20052;-60
2021/09/05 11:57:52;;;;;;;9.57;6.78;;;;;;;;;;5056729;28;20031;-60
2021/09/05 12:00:29;;;;;;;11.57;6.78;;;;;;;;;;5054552;28;20029;-61
2021/09/05 12:02:56;;;;;;;12.43;7.22;;;;;;;;;;5049760;28;20031;-61
2021/09/05 12:05:21;;;;;;;8.82;6.18;;;;;;;;;;5052727;28;20025;-60
2021/09/05 12:07:48;;;;;;;9.60;6.43;;;;;;;;;;5050711;28;20571;-60
2021/09/05 12:10:20;;;;;;;7.95;6.00;;;;;;;;;;5050539;28;20112;-60
2021/09/05 12:13:03;;;;;;;11.43;6.72;;;;;;;;;;5049657;28;20464;-61
2021/09/05 12:15:43;;;;;;;9.13;6.10;;;;;;;;;;5049213;28;20033;-60
2021/09/05 12:18:19;;;;;;;14.50;7.03;;;;;;;;;;5050050;28;20025;-61
2021/09/05 12:20:48;;;;;;;10.68;6.70;;;;;;;;;;5066898;28;20457;-60
2021/09/05 12:23:17;;;;;;;;;;;;;;;;;;5050592;28;20031;-60
2021/09/05 12:25:43;;;;;;;9.50;6.07;;;;;;;;;;5052229;28;19995;-60
2021/09/05 12:28:10;;;;;;;14.05;6.38;;;;;;;;;;5053156;28;23538;-61
2021/09/05 12:30:37;;;;;;;9.25;5.95;;;;;;;;;;5052432;28;20025;-60
2021/09/05 12:33:09;;;;;;;8.93;6.13;;;;;;;;;;5052814;28;20035;-61
2021/09/05 12:35:36;;;;;;;9.20;6.20;;;;;;;;;;5050968;28;20036;-61
2021/09/05 12:38:11;;;;;;;9.70;6.63;;;;;;;;;;5051680;28;20029;-61
2021/09/05 12:40:42;;;;;;;10.93;6.63;;;;;;;;;;5067001;28;20120;-61
2021/09/05 12:43:08;;;;;;;8.60;6.05;;;;;;;;;;5050196;28;20028;-60
2021/09/05 12:45:34;;;;;;;9.63;6.03;;;;;;;;;;5052373;28;20103;-61
2021/09/05 12:48:13;;;;;;;8.30;5.72;;;;;;;;;;5051786;28;20475;-59
2021/09/05 12:50:39;;;;;;;9.63;5.10;;;;;;;;;;5056669;28;20086;-59
2021/09/05 12:53:16;;;;;;;12.75;6.45;;;;;;;;;;5049980;28;20025;-59
2021/09/05 12:55:43;;;;;;;10.85;6.38;;;;;;;;;;5050645;28;20025;-59
2021/09/05 12:58:08;;;;;;;8.75;6.13;;;;;;;;;;5051235;28;20106;-61
2021/09/05 13:00:35;;;;;;;10.68;6.35;;;;;;;;;;5052013;28;20037;-61
2021/09/05 13:03:01;;;;;;;10.07;6.57;;;;;;;;;;5052003;28;20040;-61
2021/09/05 13:05:28;;;;;;;8.10;5.70;;;;;;;;;;5054883;28;20035;-60
2021/09/05 13:07:54;;;;;;;10.23;6.53;;;;;;;;;;5049779;28;20052;-60
2021/09/05 13:10:19;;;;;;;10.10;6.85;;;;;;;;;;5052900;28;20480;-61
2021/09/05 13:12:44;;;;;;;10.13;6.18;;;;;;;;;;5050993;28;20501;-61
2021/09/05 13:15:10;;;;;;;9.00;6.22;;;;;;;;;;5051701;28;20021;-60
2021/09/05 13:17:36;;;;;;;10.70;7.15;;;;;;;;;;5049760;28;20491;-60
2021/09/05 13:20:02;;;;;;;10.23;6.25;;;;;;;;;;5050704;28;20543;-59
2021/09/05 13:22:27;;;;;;;10.88;5.97;;;;;;;;;;5050112;28;20432;-60
2021/09/05 13:24:53;;;;;;;8.95;6.20;;;;;;;;;;5047962;28;20037;-62
2021/09/05 13:27:18;;;;;;;9.50;5.85;;;;;;;;;;5057560;28;20025;-60
2021/09/05 13:29:43;;;;;;;10.75;6.18;;;;;;;;;;5049603;28;20104;-60
2021/09/05 13:32:09;;;;;;;10.55;6.18;;;;;;;;;;5051779;28;20028;-59
2021/09/05 13:34:34;;;;;;;10.05;5.90;;;;;;;;;;5063431;28;20029;-62
2021/09/05 13:37:00;;;;;;;11.82;5.93;;;;;;;;;;5049971;28;20025;-62
2021/09/05 13:39:25;;;;;;;8.95;6.25;;;;;;;;;;5045820;28;20051;-61
2021/09/05 13:41:51;;;;;;;12.95;7.20;;;;;;;;;;5049345;28;20037;-61
2021/09/05 13:44:17;;;;;;;9.02;5.60;;;;;;;;;;5051585;28;20495;-60
2021/09/05 13:46:43;;;;;;;11.00;5.55;;;;;;;;;;5049059;28;20039;-60
2021/09/05 13:49:08;;;;;;;9.38;5.90;;;;;;;;;;5052741;28;20021;-59
2021/09/05 13:51:34;;;;;;;9.02;5.68;;;;;;;;;;5050996;28;20488;-62
2021/09/05 13:53:59;;;;;;;9.02;5.90;;;;;;;;;;5049291;28;20060;-62
2021/09/05 13:56:25;;;;;;;9.93;6.13;;;;;;;;;;5046220;28;20053;-57
2021/09/05 13:58:50;;;;;;;10.43;6.10;;;;;;;;;;5050434;28;20029;-63
2021/09/05 14:01:16;;;;;;;9.07;5.72;;;;;;;;;;5050369;28;20029;-64
2021/09/05 14:03:41;;;;;;;9.65;6.05;;;;;;;;;;5049467;28;20035;-62
2021/09/05 14:06:06;;;;;;;13.82;6.75;;;;;;;;;;5049059;28;20029;-62
2021/09/05 14:08:32;;;;;;;8.07;5.40;;;;;;;;;;5049363;28;20025;-63
2021/09/05 14:10:58;;;;;;;10.13;6.15;;;;;;;;;;5053223;28;20558;-63
2021/09/05 14:13:23;;;;;;;10.43;6.00;;;;;;;;;;5050519;28;20075;-63
2021/09/05 14:15:48;;;;;;;9.75;5.80;;;;;;;;;;5051055;28;20394;-63
2021/09/05 14:18:14;;;;;;;10.60;6.00;;;;;;;;;;5057708;28;20035;-63
2021/09/05 14:20:39;;;;;;;7.53;5.43;;;;;;;;;;5053726;28;20035;-63
2021/09/05 14:23:05;;;;;;;9.52;6.00;;;;;;;;;;5049275;28;20483;-63
2021/09/05 14:25:31;;;;;;;9.05;5.97;;;;;;;;;;5049664;28;20060;-63